createdAt,value
2023-03-30T00:01:34.517Z,13.02
2023-03-30T00:04:22.588Z,12.75
2023-03-30T00:07:08.359Z,14.50
2023-03-30T00:09:54.541Z,12.07
2023-03-30T00:12:41.136Z,13.80
2023-03-30T00:15:26.297Z,11.88
2023-03-30T00:18:11.635Z,14.13
2023-03-30T00:20:58.376Z,15.52
2023-03-30T00:23:48.339Z,14.43
2023-03-30T00:26:33.755Z,11.23
2023-03-30T00:29:18.623Z,13.40
2023-03-30T00:32:03.538Z,13.82
2023-03-30T00:34:48.826Z,15.00
2023-03-30T00:37:37.548Z,11.90
2023-03-30T00:40:23.608Z,13.55
2023-03-30T00:43:11.714Z,12.63
2023-03-30T00:45:57.544Z,16.27
2023-03-30T00:48:42.941Z,12.35
2023-03-30T00:51:28.489Z,13.88
2023-03-30T00:54:18.896Z,11.23
2023-03-30T00:57:04.265Z,14.68
2023-03-30T00:59:53.113Z,16.45
2023-03-30T01:02:47.632Z,13.73
2023-03-30T01:05:34.603Z,14.98
2023-03-30T01:08:23.893Z,15.63
2023-03-30T01:11:08.886Z,14.68
2023-03-30T01:14:01.059Z,12.52
2023-03-30T01:17:03.825Z,12.85
2023-03-30T01:20:33.215Z,13.68
2023-03-30T01:23:39.650Z,14.80
2023-03-30T01:26:43.231Z,12.65
2023-03-30T01:29:44.051Z,15.05
2023-03-30T01:32:57.105Z,16.17
2023-03-30T01:35:53.978Z,12.98
2023-03-30T01:39:03.806Z,16.88
2023-03-30T01:41:59.463Z,12.98
2023-03-30T01:44:58.820Z,13.32
2023-03-30T01:47:55.798Z,16.67
2023-03-30T01:50:44.633Z,13.55
2023-03-30T01:53:53.093Z,12.10
2023-03-30T01:56:47.207Z,12.55
2023-03-30T01:59:43.361Z,15.93
2023-03-30T02:02:31.372Z,13.60
2023-03-30T02:05:18.945Z,13.50
2023-03-30T02:08:09.385Z,14.07
2023-03-30T02:10:56.992Z,13.27
2023-03-30T02:13:43.383Z,16.27
2023-03-30T02:16:34.254Z,17.05
2023-03-30T02:19:19.459Z,12.90
2023-03-30T02:22:06.184Z,14.35
2023-03-30T02:24:55.039Z,13.60
2023-03-30T02:27:41.954Z,13.98
2023-03-30T02:30:33.748Z,12.48
2023-03-30T02:33:27.816Z,16.95
2023-03-30T02:36:24.671Z,15.63
2023-03-30T02:39:14.749Z,12.27
2023-03-30T02:42:27.622Z,13.07
2023-03-30T02:45:18.813Z,14.90
2023-03-30T02:48:21.792Z,14.30
2023-03-30T02:51:12.968Z,14.02
2023-03-30T02:54:10.432Z,13.07
2023-03-30T02:57:11.096Z,12.77
2023-03-30T03:00:09.065Z,13.80
2023-03-30T03:02:59.186Z,14.30
2023-03-30T03:05:44.812Z,11.75
2023-03-30T03:08:37.306Z,12.48
2023-03-30T03:11:23.114Z,13.57
2023-03-30T03:14:09.656Z,13.88
2023-03-30T03:16:55.332Z,12.63
2023-03-30T03:19:40.129Z,12.00
2023-03-30T03:22:25.263Z,15.35
2023-03-30T03:25:11.617Z,17.08
2023-03-30T03:27:57.491Z,11.02
2023-03-30T03:30:42.717Z,11.23
2023-03-30T03:33:27.860Z,12.18
2023-03-30T03:36:13.217Z,12.20
2023-03-30T03:38:58.556Z,13.90
2023-03-30T03:41:43.446Z,13.55
2023-03-30T03:44:28.098Z,15.35
2023-03-30T03:47:15.999Z,10.52
2023-03-30T03:50:07.138Z,13.25
2023-03-30T03:52:52.239Z,12.02
2023-03-30T03:55:37.285Z,10.75
2023-03-30T03:58:23.065Z,14.02
2023-03-30T04:01:08.725Z,10.27
2023-03-30T04:03:54.229Z,11.30
2023-03-30T04:06:39.278Z,10.27
2023-03-30T04:09:24.931Z,13.75
2023-03-30T04:12:09.925Z,9.80
2023-03-30T04:14:54.735Z,12.10
2023-03-30T04:17:39.556Z,11.60
2023-03-30T04:20:29.542Z,12.68
2023-03-30T04:23:16.285Z,10.35
2023-03-30T04:26:02.099Z,11.10
2023-03-30T04:28:47.405Z,11.43
2023-03-30T04:31:34.954Z,9.50
2023-03-30T04:34:22.843Z,11.65
2023-03-30T04:37:09.355Z,11.40
2023-03-30T04:39:57.482Z,10.88
2023-03-30T04:42:42.888Z,11.95
2023-03-30T04:45:29.108Z,10.80
2023-03-30T04:48:14.599Z,12.88
2023-03-30T04:50:59.594Z,14.38
2023-03-30T04:53:44.781Z,11.10
2023-03-30T04:56:30.917Z,11.90
2023-03-30T04:59:18.350Z,11.23
2023-03-30T05:04:49.387Z,8.32
2023-03-30T05:07:34.283Z,7.57
2023-03-30T05:10:19.699Z,8.13
2023-03-30T05:13:05.014Z,9.77
2023-03-30T05:15:54.572Z,8.20
2023-03-30T05:18:39.295Z,7.13
2023-03-30T05:21:24.633Z,8.45
2023-03-30T05:24:12.468Z,8.35
2023-03-30T05:26:57.458Z,6.18
2023-03-30T05:29:42.470Z,7.18
2023-03-30T05:32:27.607Z,7.20
2023-03-30T05:35:12.402Z,7.88
2023-03-30T05:37:58.317Z,5.70
2023-03-30T05:40:44.871Z,6.47
2023-03-30T05:43:29.873Z,6.03
2023-03-30T05:46:15.056Z,8.85
2023-03-30T05:49:00.577Z,4.78
2023-03-30T05:51:45.516Z,5.75
2023-03-30T05:54:31.001Z,6.80
2023-03-30T05:57:15.883Z,6.55
2023-03-30T06:00:01.178Z,5.13
2023-03-30T06:02:46.109Z,5.32
2023-03-30T06:05:34.000Z,7.10
2023-03-30T06:08:22.187Z,6.88
2023-03-30T06:11:07.951Z,4.90
2023-03-30T06:13:53.910Z,4.90
2023-03-30T06:16:39.159Z,5.85
2023-03-30T06:19:24.308Z,5.18
2023-03-30T06:22:09.439Z,7.28
2023-03-30T06:24:55.253Z,11.02
2023-03-30T06:27:41.461Z,7.28
2023-03-30T06:30:28.169Z,5.32
2023-03-30T06:33:12.916Z,6.07
2023-03-30T06:35:57.882Z,4.38
2023-03-30T06:38:43.583Z,5.15
2023-03-30T06:41:28.693Z,6.03
2023-03-30T06:44:14.781Z,5.22
2023-03-30T06:47:01.024Z,6.07
2023-03-30T06:49:46.131Z,3.75
2023-03-30T06:52:34.969Z,3.40
2023-03-30T06:55:19.680Z,4.03
2023-03-30T06:58:04.905Z,5.85
2023-03-30T07:00:50.242Z,4.07
2023-03-30T07:03:36.120Z,4.47
2023-03-30T07:06:21.349Z,6.68
2023-03-30T07:09:06.665Z,5.60
2023-03-30T07:11:53.282Z,6.85
2023-03-30T07:14:39.948Z,9.68
2023-03-30T07:17:26.893Z,4.50
2023-03-30T07:20:15.856Z,6.93
2023-03-30T07:23:02.168Z,5.97
2023-03-30T07:25:47.072Z,5.30
2023-03-30T07:28:32.265Z,4.53
2023-03-30T07:31:17.332Z,6.05
2023-03-30T07:34:03.030Z,4.72
2023-03-30T07:36:48.894Z,5.88
2023-03-30T07:39:34.106Z,4.72
2023-03-30T07:42:19.091Z,3.38
2023-03-30T07:45:04.951Z,4.53
2023-03-30T07:47:49.916Z,5.28
2023-03-30T07:50:35.217Z,5.47
2023-03-30T07:53:22.656Z,5.13
2023-03-30T07:56:08.669Z,6.32
2023-03-30T07:58:53.952Z,6.03
2023-03-30T08:01:39.030Z,4.45
2023-03-30T08:04:26.552Z,3.70
2023-03-30T08:07:12.535Z,6.40
2023-03-30T08:09:57.680Z,6.07
2023-03-30T08:12:42.956Z,5.50
2023-03-30T08:15:27.761Z,5.63
2023-03-30T08:18:14.271Z,4.95
2023-03-30T08:20:59.428Z,4.13
2023-03-30T08:23:44.964Z,5.50
2023-03-30T08:26:30.768Z,4.53
2023-03-30T08:29:16.908Z,10.43
2023-03-30T08:32:02.283Z,7.32
2023-03-30T08:34:48.158Z,7.22
2023-03-30T08:37:33.478Z,4.07
2023-03-30T08:40:19.599Z,4.18
2023-03-30T08:43:29.727Z,5.90
2023-03-30T08:46:17.403Z,7.38
2023-03-30T08:49:08.495Z,4.80
2023-03-30T08:51:54.896Z,4.55
2023-03-30T08:54:39.650Z,3.28
2023-03-30T08:57:51.052Z,6.70
2023-03-30T09:00:51.453Z,3.85
2023-03-30T09:04:06.336Z,4.82
2023-03-30T09:06:54.951Z,5.95
2023-03-30T09:09:43.838Z,8.75
2023-03-30T09:12:43.856Z,6.45
2023-03-30T09:15:38.478Z,4.75
2023-03-30T09:18:35.168Z,4.25
2023-03-30T09:21:24.012Z,5.50
2023-03-30T09:24:16.388Z,7.38
2023-03-30T09:27:18.928Z,5.38
2023-03-30T09:30:17.041Z,5.57
2023-03-30T09:33:12.084Z,6.07
2023-03-30T09:36:08.581Z,4.63
2023-03-30T09:38:53.659Z,6.45
2023-03-30T09:42:13.878Z,8.73
2023-03-30T09:45:06.877Z,5.90
2023-03-30T09:47:52.630Z,6.00
2023-03-30T09:50:43.988Z,8.20
2023-03-30T09:53:31.721Z,5.68
2023-03-30T09:56:27.152Z,5.35
2023-03-30T09:59:32.099Z,8.75
2023-03-30T10:02:19.804Z,6.22
2023-03-30T10:05:06.729Z,10.98
2023-03-30T10:07:57.388Z,6.80
2023-03-30T10:10:42.391Z,8.43
2023-03-30T10:13:33.864Z,4.35
2023-03-30T10:16:27.662Z,8.38
2023-03-30T10:19:21.167Z,8.45
2023-03-30T10:22:17.804Z,9.50
2023-03-30T10:25:13.242Z,7.43
2023-03-30T10:28:04.151Z,7.50
2023-03-30T10:30:56.186Z,5.28
2023-03-30T10:33:43.709Z,7.60
2023-03-30T10:36:38.822Z,4.57
2023-03-30T10:39:30.100Z,8.60
2023-03-30T10:42:20.699Z,4.80
2023-03-30T10:45:08.481Z,9.48
2023-03-30T10:48:18.125Z,4.95
2023-03-30T10:51:31.347Z,6.47
2023-03-30T10:54:19.313Z,9.55
2023-03-30T10:57:12.795Z,5.63
2023-03-30T11:00:18.902Z,6.32
2023-03-30T11:03:12.736Z,7.82
2023-03-30T11:06:16.244Z,7.35
2023-03-30T11:09:05.223Z,8.48
2023-03-30T11:11:58.920Z,7.45
2023-03-30T11:15:09.643Z,8.45
2023-03-30T11:18:17.643Z,6.80
2023-03-30T11:21:40.918Z,5.50
2023-03-30T11:24:29.163Z,7.07
2023-03-30T11:27:40.324Z,7.20
2023-03-30T11:30:29.790Z,7.75
2023-03-30T11:33:28.157Z,5.32
2023-03-30T11:36:23.648Z,7.45
2023-03-30T11:39:28.957Z,6.50
2023-03-30T11:45:54.020Z,4.65
2023-03-30T11:48:57.304Z,3.40
2023-03-30T11:51:56.636Z,2.83
2023-03-30T11:55:20.366Z,5.45
2023-03-30T11:58:35.604Z,2.35
2023-03-30T12:01:23.434Z,3.67
2023-03-30T12:06:59.119Z,1.83
2023-03-30T12:09:58.114Z,3.88
2023-03-30T12:12:45.905Z,3.17
2023-03-30T12:16:06.446Z,5.07
2023-03-30T12:19:45.578Z,3.47
2023-03-30T12:22:53.543Z,3.08
2023-03-30T12:26:11.085Z,3.28
2023-03-30T12:29:56.407Z,4.60
2023-03-30T12:32:28.240Z,3.85
2023-03-30T12:35:53.888Z,3.83
2023-03-30T12:38:46.148Z,4.38
2023-03-30T12:41:42.311Z,4.72
2023-03-30T12:45:09.712Z,6.93
2023-03-30T12:48:25.142Z,6.50
2023-03-30T12:51:39.414Z,6.57
2023-03-30T12:54:38.126Z,8.30
2023-03-30T12:57:36.374Z,4.35
2023-03-30T13:00:57.248Z,5.00
2023-03-30T13:03:50.073Z,6.55
2023-03-30T13:10:06.379Z,6.15
2023-03-30T13:12:52.047Z,4.82
2023-03-30T13:15:40.177Z,4.57
2023-03-30T13:18:35.264Z,5.88
2023-03-30T13:21:23.792Z,3.63
2023-03-30T13:24:26.530Z,4.55
2023-03-30T13:27:14.428Z,6.97
2023-03-30T13:30:09.873Z,4.95
2023-03-30T13:32:59.798Z,4.07
2023-03-30T13:36:06.555Z,5.60
2023-03-30T13:39:20.095Z,5.97
2023-03-30T13:42:40.198Z,4.60
2023-03-30T13:45:34.709Z,6.30
2023-03-30T13:48:40.232Z,4.05
2023-03-30T13:51:27.767Z,5.93
2023-03-30T13:54:29.784Z,5.55
2023-03-30T13:57:23.059Z,5.28
2023-03-30T14:00:28.586Z,3.92
2023-03-30T14:03:42.034Z,4.15
2023-03-30T14:06:30.252Z,7.10
2023-03-30T14:09:24.971Z,3.83
2023-03-30T14:12:13.076Z,2.17
2023-03-30T14:14:58.902Z,5.38
2023-03-30T14:17:50.651Z,1.92
2023-03-30T14:20:56.729Z,6.22
2023-03-30T14:23:49.646Z,3.05
2023-03-30T14:26:41.372Z,3.10
2023-03-30T14:29:31.442Z,4.00
2023-03-30T14:32:21.674Z,7.05
2023-03-30T14:35:08.377Z,7.75
2023-03-30T14:37:53.706Z,4.18
2023-03-30T14:40:40.444Z,8.85
2023-03-30T14:43:30.432Z,5.90
2023-03-30T14:46:15.474Z,7.07
2023-03-30T14:49:00.801Z,6.40
2023-03-30T14:51:48.849Z,8.88
2023-03-30T14:54:35.973Z,4.03
2023-03-30T14:57:23.653Z,6.63
2023-03-30T15:00:22.757Z,4.80
2023-03-30T15:03:17.069Z,5.55
2023-03-30T15:06:16.855Z,6.95
2023-03-30T15:09:04.154Z,6.60
2023-03-30T15:12:01.443Z,11.93
2023-03-30T15:14:48.734Z,4.75
2023-03-30T15:17:36.389Z,7.35
2023-03-30T15:20:25.606Z,3.78
2023-03-30T15:23:13.621Z,4.38
2023-03-30T15:26:01.817Z,3.75
2023-03-30T15:28:51.072Z,5.07
2023-03-30T15:31:36.562Z,4.68
2023-03-30T15:34:22.808Z,8.45
2023-03-30T15:37:22.233Z,6.57
2023-03-30T15:40:31.237Z,5.90
2023-03-30T15:43:20.977Z,6.88
2023-03-30T15:46:10.668Z,3.42
2023-03-30T15:48:58.245Z,5.13
2023-03-30T15:51:50.488Z,3.03
2023-03-30T15:54:41.375Z,5.05
2023-03-30T15:57:30.662Z,8.63
2023-03-30T16:00:28.651Z,3.03
2023-03-30T16:03:14.317Z,7.05
2023-03-30T16:05:59.484Z,5.35
2023-03-30T16:08:45.157Z,4.60
2023-03-30T16:11:30.568Z,8.65
2023-03-30T16:14:20.559Z,4.45
2023-03-30T16:17:06.161Z,7.30
2023-03-30T16:19:51.534Z,6.05
2023-03-30T16:22:37.647Z,6.82
2023-03-30T16:25:34.106Z,5.20
2023-03-30T16:28:30.133Z,7.15
2023-03-30T16:31:19.582Z,9.10
2023-03-30T16:34:04.777Z,5.05
2023-03-30T16:36:50.291Z,5.32
2023-03-30T16:39:36.505Z,7.07
2023-03-30T16:42:21.825Z,4.75
2023-03-30T16:45:09.372Z,6.90
2023-03-30T16:47:54.958Z,5.38
2023-03-30T16:50:51.927Z,6.88
2023-03-30T16:53:36.770Z,4.03
2023-03-30T16:56:23.337Z,5.65
2023-03-30T16:59:26.005Z,7.65
2023-03-30T17:02:16.320Z,6.15
2023-03-30T17:05:03.437Z,4.45
2023-03-30T17:07:49.151Z,6.03
2023-03-30T17:10:36.841Z,4.20
2023-03-30T17:13:22.773Z,5.93
2023-03-30T17:16:08.400Z,9.43
2023-03-30T17:18:53.888Z,4.13
2023-03-30T17:21:40.679Z,7.45
2023-03-30T17:24:26.622Z,7.05
2023-03-30T17:27:12.121Z,4.47
2023-03-30T17:29:57.227Z,3.78
2023-03-30T17:32:42.858Z,8.30
2023-03-30T17:35:28.227Z,7.63
2023-03-30T17:38:16.770Z,6.07
2023-03-30T17:41:01.915Z,9.30
2023-03-30T17:43:49.041Z,7.32
2023-03-30T17:46:34.300Z,6.45
2023-03-30T17:49:22.147Z,7.38
2023-03-30T17:52:07.274Z,5.68
2023-03-30T17:54:52.143Z,6.53
2023-03-30T17:57:37.637Z,4.38
2023-03-30T18:00:28.888Z,6.22
2023-03-30T18:03:21.456Z,6.70
2023-03-30T18:06:07.462Z,6.40
2023-03-30T18:08:53.104Z,7.47
2023-03-30T18:11:39.606Z,5.03
2023-03-30T18:14:24.672Z,9.18
2023-03-30T18:17:11.364Z,5.63
2023-03-30T18:19:56.970Z,6.65
2023-03-30T18:22:42.356Z,6.45
2023-03-30T18:25:32.885Z,5.63
2023-03-30T18:28:23.717Z,6.93
2023-03-30T18:31:08.873Z,4.72
2023-03-30T18:33:55.361Z,5.95
2023-03-30T18:36:41.982Z,4.20
2023-03-30T18:39:26.948Z,4.43
2023-03-30T18:42:11.821Z,6.70
2023-03-30T18:44:56.663Z,6.82
2023-03-30T18:47:41.940Z,4.43
2023-03-30T18:50:42.572Z,7.65
2023-03-30T18:53:28.584Z,6.45
2023-03-30T18:56:14.965Z,6.53
2023-03-30T18:59:02.717Z,7.43
2023-03-30T19:01:48.323Z,7.15
2023-03-30T19:04:33.998Z,6.50
2023-03-30T19:07:19.005Z,8.50
2023-03-30T19:10:04.546Z,7.68
2023-03-30T19:12:53.263Z,7.57
2023-03-30T19:15:38.097Z,6.63
2023-03-30T19:18:23.672Z,14.98
2023-03-30T19:21:28.916Z,5.22
2023-03-30T19:24:14.101Z,7.80
2023-03-30T19:27:03.638Z,7.50
2023-03-30T19:29:48.725Z,6.20
2023-03-30T19:32:34.154Z,6.53
2023-03-30T19:35:19.434Z,8.55
2023-03-30T19:38:05.786Z,8.05
2023-03-30T19:40:53.587Z,12.10
2023-03-30T19:43:41.089Z,6.57
2023-03-30T19:49:11.721Z,12.10
2023-03-30T19:51:57.557Z,5.40
2023-03-30T19:54:42.493Z,7.18
2023-03-30T19:57:28.234Z,6.50
2023-03-30T20:00:24.971Z,11.43
2023-03-30T20:03:12.608Z,6.28
2023-03-30T20:06:01.042Z,6.35
2023-03-30T20:08:46.855Z,5.63
2023-03-30T20:11:32.955Z,5.57
2023-03-30T20:14:18.452Z,5.45
2023-03-30T20:17:04.585Z,4.35
2023-03-30T20:19:50.415Z,5.10
2023-03-30T20:22:36.889Z,5.78
2023-03-30T20:25:22.701Z,5.88
2023-03-30T20:28:17.923Z,7.97
2023-03-30T20:31:05.757Z,5.53
2023-03-30T20:33:51.269Z,3.90
2023-03-30T20:36:37.180Z,7.07
2023-03-30T20:39:27.536Z,6.03
2023-03-30T20:42:24.881Z,3.67
2023-03-30T20:45:14.076Z,5.32
2023-03-30T20:48:06.386Z,5.20
2023-03-30T20:50:56.829Z,4.38
2023-03-30T20:53:44.778Z,5.70
2023-03-30T20:56:29.990Z,6.18
2023-03-30T20:59:15.672Z,6.68
2023-03-30T21:02:00.881Z,6.97
2023-03-30T21:04:46.687Z,5.85
2023-03-30T21:07:33.639Z,6.57
2023-03-30T21:10:18.842Z,5.97
2023-03-30T21:13:03.925Z,5.28
2023-03-30T21:15:58.294Z,4.70
2023-03-30T21:18:43.932Z,6.47
2023-03-30T21:21:29.243Z,7.80
2023-03-30T21:24:16.136Z,6.65
2023-03-30T21:27:01.229Z,3.55
2023-03-30T21:29:47.259Z,5.75
2023-03-30T21:32:32.144Z,5.63
2023-03-30T21:35:20.598Z,4.70
2023-03-30T21:38:06.073Z,7.10
2023-03-30T21:41:00.676Z,5.88
2023-03-30T21:43:47.415Z,11.13
2023-03-30T21:46:32.685Z,5.88
2023-03-30T21:49:17.971Z,8.98
2023-03-30T21:52:04.493Z,4.18
2023-03-30T21:54:50.351Z,7.70
2023-03-30T21:57:35.267Z,9.75
2023-03-30T22:00:23.184Z,5.90
2023-03-30T22:03:09.701Z,6.32
2023-03-30T22:06:03.431Z,8.75
2023-03-30T22:08:48.734Z,7.15
2023-03-30T22:11:34.395Z,8.48
2023-03-30T22:14:19.590Z,8.63
2023-03-30T22:17:04.831Z,7.15
2023-03-30T22:19:51.754Z,8.43
2023-03-30T22:22:37.076Z,5.95
2023-03-30T22:25:22.330Z,5.32
2023-03-30T22:28:08.878Z,6.55
2023-03-30T22:30:54.428Z,8.15
2023-03-30T22:33:39.922Z,6.93
2023-03-30T22:36:30.275Z,7.35
2023-03-30T22:39:16.578Z,5.97
2023-03-30T22:42:02.304Z,6.03
2023-03-30T22:44:49.584Z,4.90
2023-03-30T22:47:35.243Z,4.63
2023-03-30T22:50:20.293Z,6.38
2023-03-30T22:53:05.526Z,8.18
2023-03-30T22:55:50.665Z,8.80
2023-03-30T22:58:36.217Z,6.10
2023-03-30T23:01:21.807Z,4.85
2023-03-30T23:04:07.258Z,6.70
2023-03-30T23:06:52.046Z,5.68
2023-03-30T23:09:38.217Z,8.30
2023-03-30T23:12:23.173Z,5.07
2023-03-30T23:15:09.744Z,5.10
2023-03-30T23:17:56.341Z,4.70
2023-03-30T23:20:46.345Z,5.10
2023-03-30T23:23:36.041Z,5.65
2023-03-30T23:26:21.673Z,5.25
2023-03-30T23:29:07.249Z,6.22
2023-03-30T23:31:52.962Z,4.20
2023-03-30T23:34:38.132Z,6.38
2023-03-30T23:37:23.732Z,5.00
2023-03-30T23:40:09.209Z,4.10
2023-03-30T23:42:54.502Z,9.82
2023-03-30T23:45:39.479Z,6.57
2023-03-30T23:48:24.985Z,5.28
2023-03-30T23:51:10.100Z,7.00
2023-03-30T23:53:57.349Z,3.40
2023-03-30T23:56:43.226Z,6.95
2023-03-30T23:59:28.198Z,7.25
